Time;durP1;ratioP1;P1;durP2;ratioP2;P2;SDS_P1;SDS_P2;PMS_P1;PMS_P2;Temp;Humidity;BMP_temperature;BMP_pressure;BME280_temperature;BME280_humidity;BME280_pressure;Samples;Min_cycle;Max_cycle;Signal;HPM_P1;HPM_P2
2022/05/23 00:00:06;;;;;;;4.75;2.13;;;;;;;18.74;52.98;98748.00;5007714;28;20029;-65
2022/05/23 00:02:32;;;;;;;2.72;1.75;;;;;;;18.72;53.15;98728.63;5008665;28;20447;-64
2022/05/23 00:04:57;;;;;;;4.03;2.20;;;;;;;18.70;53.08;98736.78;5010024;28;20038;-64
2022/05/23 00:07:29;;;;;;;2.42;1.60;;;;;;;18.68;53.22;98722.78;5007215;28;20041;-64
2022/05/23 00:09:55;;;;;;;5.43;2.22;;;;;;;18.64;53.18;98730.22;5009335;28;20577;-64
2022/05/23 00:12:22;;;;;;;2.35;1.63;;;;;;;18.64;53.34;98727.56;5012480;28;20546;-65
2022/05/23 00:14:49;;;;;;;3.00;1.92;;;;;;;18.62;53.61;98729.53;5005069;28;20034;-64
2022/05/23 00:17:14;;;;;;;10.38;2.10;;;;;;;18.62;53.57;98721.53;5004281;28;20525;-64
2022/05/23 00:19:40;;;;;;;4.68;2.10;;;;;;;18.59;53.55;98729.03;5004977;28;20036;-63
2022/05/23 00:22:06;;;;;;;3.03;2.13;;;;;;;18.57;54.95;98734.50;5004520;28;20117;-55
2022/05/23 00:24:32;;;;;;;5.40;2.30;;;;;;;18.84;53.46;98736.28;5004657;28;20091;-57
2022/05/23 00:26:57;;;;;;;4.03;2.20;;;;;;;18.90;53.13;98732.13;5004211;28;20038;-65
2022/05/23 00:29:23;;;;;;;4.93;2.08;;;;;;;18.86;53.13;98723.59;5004755;28;20432;-65
2022/05/23 00:37:19;;;;;;;3.75;1.73;;;;;;;18.62;53.77;98721.53;5001128;28;21381;-64
2022/05/23 00:39:45;;;;;;;2.78;1.88;;;;;;;18.62;53.73;98720.69;5001843;28;20041;-65
2022/05/23 00:44:58;;;;;;;2.42;1.83;;;;;;;18.59;53.95;98721.00;5005753;28;20037;-66
2022/05/23 00:47:26;;;;;;;3.38;1.92;;;;;;;18.54;54.11;98713.47;5006585;28;20041;-63
2022/05/23 00:49:51;;;;;;;3.50;1.65;;;;;;;18.49;54.37;98710.41;5007521;28;20571;-64
2022/05/23 00:52:26;;;;;;;3.72;2.20;;;;;;;18.50;54.32;98705.91;5007875;28;20044;-65
2022/05/23 00:54:54;;;;;;;5.47;1.80;;;;;;;18.51;54.54;98707.56;5008198;28;20029;-65
2022/05/23 00:57:25;;;;;;;3.35;1.80;;;;;;;18.49;54.61;98710.41;5007290;28;20056;-63
2022/05/23 00:59:50;;;;;;;4.90;1.90;;;;;;;18.47;54.48;98706.22;5007785;28;20048;-63
2022/05/23 01:02:18;;;;;;;4.43;2.15;;;;;;;18.44;54.84;98707.34;5022809;28;20451;-65
2022/05/23 01:04:44;;;;;;;2.10;1.52;;;;;;;18.45;54.61;98720.53;5007901;28;20030;-63
2022/05/23 01:07:11;;;;;;;3.13;2.00;;;;;;;18.52;54.64;98715.44;5005219;28;20505;-65
2022/05/23 01:09:36;;;;;;;3.42;2.03;;;;;;;18.52;54.71;98703.94;5008197;28;20041;-65
2022/05/23 01:12:02;;;;;;;4.00;2.33;;;;;;;18.53;54.80;98710.94;5007361;28;20088;-64
2022/05/23 01:14:49;;;;;;;4.72;2.30;;;;;;;18.53;54.47;98703.75;5008088;28;20029;-64
2022/05/23 01:17:15;;;;;;;4.38;2.40;;;;;;;18.55;54.52;98704.44;5006909;28;20056;-62
2022/05/23 01:19:41;;;;;;;3.88;2.33;;;;;;;18.55;54.39;98699.09;5007824;28;20038;-63
2022/05/23 01:22:40;;;;;;;3.67;2.35;;;;;;;18.55;54.50;98696.44;5007937;28;20141;-64
2022/05/23 01:25:35;;;;;;;2.40;2.03;;;;;;;18.56;53.91;98695.47;5007759;28;20037;-63
2022/05/23 01:28:01;;;;;;;5.68;2.58;;;;;;;18.55;54.29;98696.44;5000855;28;20041;-64
2022/05/23 01:30:29;;;;;;;6.05;2.30;;;;;;;18.53;54.97;98697.56;5010742;28;20041;-63
2022/05/23 01:32:54;;;;;;;3.25;1.95;;;;;;;18.52;54.55;98691.41;5027233;28;20037;-64
2022/05/23 01:35:19;;;;;;;5.07;2.42;;;;;;;18.48;55.01;98690.03;5015884;28;20564;-65
2022/05/23 01:37:45;;;;;;;5.18;1.98;;;;;;;18.47;55.17;98684.88;5006341;28;20026;-65
2022/05/23 01:40:14;;;;;;;3.15;2.05;;;;;;;18.42;55.47;98693.31;5007147;28;20740;-64
2022/05/23 01:42:40;;;;;;;3.35;2.40;;;;;;;18.39;55.35;98689.13;5007173;28;20061;-63
2022/05/23 01:45:07;;;;;;;4.05;2.35;;;;;;;18.38;55.53;98687.44;5007347;28;20034;-63
2022/05/23 01:47:32;;;;;;;2.85;1.95;;;;;;;18.38;55.08;98681.25;5005996;28;20120;-63
2022/05/23 01:49:57;;;;;;;3.78;2.33;;;;;;;18.41;54.88;98679.16;5007110;28;20486;-64
2022/05/23 01:52:23;;;;;;;3.58;2.00;;;;;;;18.45;54.98;98672.50;5005816;28;20065;-65
2022/05/23 01:54:48;;;;;;;4.30;2.15;;;;;;;18.47;54.90;98667.00;5007010;28;20904;-64
2022/05/23 01:57:13;;;;;;;3.50;2.50;;;;;;;18.38;55.88;98662.59;5005094;28;20061;-65
2022/05/23 02:02:24;;;;;;;3.70;2.22;;;;;;;18.28;55.57;98654.66;5006497;28;20091;-64
2022/05/23 02:04:51;;;;;;;4.07;2.00;;;;;;;18.30;55.53;98647.34;5006806;28;20030;-65
2022/05/23 02:07:16;;;;;;;3.65;2.00;;;;;;;18.29;55.76;98660.84;5005759;28;20447;-64
2022/05/23 02:09:42;;;;;;;5.43;2.30;;;;;;;18.24;55.90;98656.81;5006582;28;20076;-65
2022/05/23 02:12:09;;;;;;;3.00;1.90;;;;;;;18.20;56.88;98652.75;5006756;28;20061;-65
2022/05/23 02:14:35;;;;;;;3.20;2.03;;;;;;;18.18;56.42;98652.06;5006156;28;20037;-65
2022/05/23 02:17:00;;;;;;;4.07;2.67;;;;;;;18.19;57.20;98642.25;5005722;28;20038;-63
2022/05/23 02:19:26;;;;;;;5.72;2.90;;;;;;;18.16;57.12;98646.06;5007680;28;20060;-64
2022/05/23 02:21:51;;;;;;;3.60;1.85;;;;;;;18.14;57.43;98634.69;5007429;28;20409;-64
2022/05/23 02:24:18;;;;;;;7.15;2.63;;;;;;;18.10;57.44;98637.81;5006642;28;20638;-65
2022/05/23 02:26:43;;;;;;;6.85;2.38;;;;;;;18.08;57.66;98634.47;5005552;28;20099;-63
2022/05/23 02:29:10;;;;;;;5.10;2.65;;;;;;;18.05;57.58;98638.28;5006836;28;20046;-62
2022/05/23 02:31:36;;;;;;;3.83;2.05;;;;;;;17.99;57.44;98625.53;5006674;28;20057;-64
2022/05/23 02:34:01;;;;;;;3.83;2.10;;;;;;;17.97;57.70;98628.38;5006672;28;20509;-62
2022/05/23 02:36:27;;;;;;;3.80;2.55;;;;;;;17.93;58.06;98618.97;5005762;28;20061;-65
2022/05/23 02:38:53;;;;;;;4.85;3.63;;;;;;;17.90;58.05;98618.47;5005948;28;20077;-65
2022/05/23 02:41:18;;;;;;;3.40;2.42;;;;;;;17.86;58.40;98614.41;5004967;28;20724;-64
2022/05/23 02:43:43;;;;;;;3.53;2.20;;;;;;;17.81;58.72;98614.84;5006313;28;20473;-63
2022/05/23 02:46:09;;;;;;;4.20;2.05;;;;;;;17.70;59.48;98607.88;5005916;28;20180;-65
2022/05/23 02:48:34;;;;;;;7.88;2.67;;;;;;;17.65;60.46;98606.66;5006015;28;20160;-64
2022/05/23 02:51:00;;;;;;;3.60;2.30;;;;;;;17.63;59.80;98603.31;5005300;28;20294;-64
2022/05/23 02:53:25;;;;;;;3.90;2.42;;;;;;;17.64;59.40;98607.63;5005526;28;20045;-65
2022/05/23 02:55:51;;;;;;;3.97;2.10;;;;;;;17.59;59.42;98592.91;5005315;28;20034;-63
2022/05/23 02:58:16;;;;;;;5.68;2.10;;;;;;;17.55;59.67;98585.41;5005527;28;20045;-63
2022/05/23 03:00:42;;;;;;;3.13;2.20;;;;;;;17.47;59.96;98582.63;5005449;28;20697;-63
2022/05/23 03:03:08;;;;;;;3.65;2.05;;;;;;;17.39;60.40;98573.53;5005836;28;20121;-63
2022/05/23 03:05:37;;;;;;;3.40;2.65;;;;;;;17.33;60.72;98563.50;5002759;28;20122;-64
2022/05/23 03:08:04;;;;;;;4.95;2.65;;;;;;;17.29;61.27;98566.59;4996354;28;20050;-62
2022/05/23 03:10:29;;;;;;;3.28;2.33;;;;;;;17.28;61.43;98555.13;5005552;28;20065;-64
2022/05/23 03:12:55;;;;;;;4.63;2.45;;;;;;;17.30;61.20;98547.81;5005328;28;20442;-64
2022/05/23 03:15:21;;;;;;;3.88;2.50;;;;;;;17.29;61.16;98551.44;5005082;28;20413;-63
2022/05/23 03:17:47;;;;;;;2.63;2.00;;;;;;;17.32;61.17;98539.66;5004463;28;20053;-64
2022/05/23 03:20:13;;;;;;;5.50;1.88;;;;;;;17.35;61.44;98536.69;5005556;28;20040;-63
2022/05/23 03:28:06;;;;;;;4.43;2.75;;;;;;;17.28;61.94;98517.81;5005038;28;20180;-63
2022/05/23 03:30:32;;;;;;;6.00;2.58;;;;;;;17.24;61.96;98511.09;5005539;28;20120;-64
2022/05/23 03:32:58;;;;;;;4.65;2.72;;;;;;;17.23;62.47;98505.91;5005300;28;20054;-65
2022/05/23 03:35:26;;;;;;;5.30;3.15;;;;;;;17.11;62.66;98499.97;5005242;28;20050;-65
2022/05/23 03:37:51;;;;;;;8.95;2.95;;;;;;;17.07;62.52;98483.44;5004317;28;20038;-65
2022/05/23 03:40:17;;;;;;;3.70;2.55;;;;;;;17.13;61.93;98482.88;5003317;28;20084;-64
2022/05/23 03:42:42;;;;;;;4.80;2.00;;;;;;;17.12;61.95;98470.53;5005149;28;20133;-64
2022/05/23 03:45:09;;;;;;;5.07;2.88;;;;;;;17.14;61.95;98465.06;5005819;28;20037;-64
2022/05/23 03:47:34;;;;;;;4.65;2.30;;;;;;;17.15;62.01;98464.91;5004333;28;20061;-64
2022/05/23 03:49:59;;;;;;;5.20;2.88;;;;;;;17.15;61.80;98458.72;5004852;28;20041;-65
2022/05/23 03:52:25;;;;;;;3.65;2.67;;;;;;;17.11;62.04;98454.72;5004847;28;20088;-62
2022/05/23 03:54:50;;;;;;;4.50;2.42;;;;;;;17.10;62.26;98447.69;5005302;28;20030;-63
2022/05/23 03:57:15;;;;;;;6.68;2.50;;;;;;;17.11;62.11;98452.03;5004661;28;20034;-65
2022/05/23 03:59:41;;;;;;;4.32;2.88;;;;;;;17.10;61.90;98458.34;5005417;28;20042;-65
2022/05/23 04:02:07;;;;;;;3.90;2.70;;;;;;;17.06;62.01;98452.50;5005160;28;20041;-63
2022/05/23 04:04:32;;;;;;;3.25;2.42;;;;;;;17.05;62.13;98450.78;5003690;28;20036;-63
2022/05/23 04:06:59;;;;;;;5.72;2.65;;;;;;;17.04;62.17;98450.97;5004439;28;20038;-64
2022/05/23 04:09:26;;;;;;;5.20;3.10;;;;;;;17.03;62.25;98449.28;5004988;28;20093;-65
2022/05/23 04:11:51;;;;;;;3.88;2.75;;;;;;;17.02;62.20;98447.63;5005219;28;20391;-64
2022/05/23 04:14:17;;;;;;;3.67;2.72;;;;;;;17.01;62.37;98440.63;5005096;28;20048;-64
2022/05/23 04:16:47;;;;;;;6.60;3.50;;;;;;;16.97;62.21;98445.38;5004819;28;20060;-65
2022/05/23 04:19:12;;;;;;;4.30;2.75;;;;;;;16.93;62.81;98438.69;5005561;28;20409;-66
2022/05/23 04:21:42;;;;;;;10.07;3.67;;;;;;;16.90;63.38;98437.16;5009144;28;20030;-65
2022/05/23 04:24:10;;;;;;;10.43;2.40;;;;;;;16.91;62.96;98433.53;5008776;28;20034;-65
2022/05/23 04:26:36;;;;;;;4.63;3.25;;;;;;;16.90;63.42;98431.81;5007991;28;20044;-65
2022/05/23 04:29:02;;;;;;;6.65;3.10;;;;;;;16.87;64.13;98425.97;5008666;28;20033;-64
2022/05/23 04:31:27;;;;;;;5.68;3.25;;;;;;;16.86;63.41;98425.16;5008296;28;20137;-64
2022/05/23 04:36:36;;;;;;;3.28;2.10;;;;;;;16.78;64.16;98409.06;5007836;28;20460;-64
2022/05/23 04:39:02;;;;;;;6.30;2.78;;;;;;;16.73;64.33;98409.47;5008188;28;20034;-65
2022/05/23 04:41:27;;;;;;;5.90;2.63;;;;;;;16.67;64.34;98398.59;5007271;28;20436;-63
2022/05/23 04:43:52;;;;;;;4.97;2.88;;;;;;;16.65;64.23;98395.25;5007932;28;20034;-63
2022/05/23 04:46:18;;;;;;;4.47;2.65;;;;;;;16.62;64.13;98396.38;5007113;28;20042;-64
2022/05/23 04:51:27;;;;;;;4.32;2.95;;;;;;;16.67;63.79;98387.97;5008190;28;20069;-63
2022/05/23 04:53:56;;;;;;;4.97;3.22;;;;;;;16.67;63.96;98386.13;5008054;28;20037;-62
2022/05/23 04:56:24;;;;;;;6.82;3.25;;;;;;;16.68;63.88;98378.97;5007707;28;20046;-61
2022/05/23 04:58:49;;;;;;;7.13;2.92;;;;;;;16.71;63.19;98374.22;5008085;28;20457;-63
2022/05/23 05:01:15;;;;;;;9.40;3.10;;;;;;;16.79;63.29;98373.50;5008514;28;20101;-65
2022/05/23 05:03:40;;;;;;;5.60;2.38;;;;;;;16.87;63.22;98376.22;5014263;28;20029;-65
2022/05/23 05:06:05;;;;;;;5.13;2.80;;;;;;;16.92;63.24;98370.47;5011484;28;20061;-63
2022/05/23 05:08:31;;;;;;;4.72;3.13;;;;;;;16.99;63.50;98373.38;5007716;28;20132;-64
2022/05/23 05:11:01;;;;;;;10.70;3.28;;;;;;;17.04;62.84;98361.25;5008054;28;20648;-64
2022/05/23 05:13:28;;;;;;;5.78;3.10;;;;;;;17.07;62.63;98354.81;5007836;28;20057;-62
2022/05/23 05:15:58;;;;;;;5.07;3.35;;;;;;;17.12;62.83;98348.03;5007345;28;20030;-63
2022/05/23 05:18:24;;;;;;;4.13;3.28;;;;;;;17.13;63.10;98348.84;5007548;28;20405;-63
2022/05/23 05:20:49;;;;;;;4.05;2.83;;;;;;;17.14;63.68;98350.53;5007940;28;20045;-62
2022/05/23 05:23:14;;;;;;;7.72;3.35;;;;;;;17.23;63.50;98349.63;5007325;28;20132;-54
2022/05/23 05:25:41;;;;;;;6.28;3.60;;;;;;;17.42;62.29;98342.44;5007711;28;20042;-55
2022/05/23 05:28:07;;;;;;;6.43;3.15;;;;;;;17.58;61.73;98342.59;5006698;28;20041;-52
2022/05/23 05:30:37;;;;;;;9.25;3.15;;;;;;;17.71;61.62;98327.00;5006831;28;20038;-52
2022/05/23 05:33:09;;;;;;;6.45;3.33;;;;;;;17.76;61.71;98337.19;5007240;28;20034;-54
2022/05/23 05:35:37;;;;;;;4.78;2.83;;;;;;;17.88;61.48;98330.63;5007107;28;20041;-55
2022/05/23 05:38:19;;;;;;;9.77;3.47;;;;;;;18.27;59.49;98335.50;5006718;28;20132;-54
2022/05/23 05:40:47;;;;;;;5.70;3.15;;;;;;;18.59;58.54;98345.47;5007189;28;20049;-55
2022/05/23 05:43:20;;;;;;;7.65;3.50;;;;;;;18.63;57.81;98346.81;5006890;28;20145;-55
2022/05/23 05:45:51;;;;;;;4.40;3.25;;;;;;;18.69;57.74;98347.16;5007456;28;20544;-54
2022/05/23 05:48:18;;;;;;;8.85;2.90;;;;;;;18.90;56.92;98336.88;5006604;28;20496;-57
2022/05/23 05:50:44;;;;;;;3.50;2.80;;;;;;;19.23;55.81;98342.28;5005066;28;20048;-55
2022/05/23 05:53:16;;;;;;;4.72;2.50;;;;;;;19.46;55.02;98343.28;5007442;28;20037;-56
2022/05/23 05:55:42;;;;;;;7.95;3.22;;;;;;;19.34;54.55;98344.63;5007009;28;20120;-56
2022/05/23 05:58:08;;;;;;;8.15;2.90;;;;;;;19.29;58.13;98342.44;5006128;28;20045;-58
2022/05/23 06:00:34;;;;;;;6.55;3.28;;;;;;;19.49;56.89;98344.78;5006653;28;20045;-57
2022/05/23 06:02:59;;;;;;;6.88;3.08;;;;;;;19.76;56.17;98346.28;5006736;28;20046;-53
2022/05/23 06:05:25;;;;;;;7.82;3.45;;;;;;;19.92;54.67;98348.94;5006190;28;20129;-59
2022/05/23 06:13:18;;;;;;;8.48;3.33;;;;;;;20.30;54.32;98310.84;5004775;28;20085;-55
2022/05/23 06:15:44;;;;;;;4.90;2.95;;;;;;;20.36;53.72;98311.00;5005697;28;20409;-57
2022/05/23 06:18:10;;;;;;;6.03;3.05;;;;;;;20.39;53.67;98312.50;5005597;28;20045;-54
2022/05/23 06:20:36;;;;;;;5.05;3.05;;;;;;;20.42;52.68;98314.81;5005626;28;20042;-58
2022/05/23 06:23:02;;;;;;;6.25;2.90;;;;;;;20.22;53.58;98311.72;5009050;28;20178;-60
2022/05/23 06:25:28;;;;;;;5.10;2.78;;;;;;;20.18;53.04;98310.41;5017878;28;20769;-54
2022/05/23 06:27:54;;;;;;;6.43;2.45;;;;;;;20.08;52.85;98309.78;5025365;28;20042;-60
2022/05/23 06:30:19;;;;;;;12.18;3.28;;;;;;;20.03;53.05;98307.59;5026067;28;20099;-66
2022/05/23 06:32:45;;;;;;;4.60;3.22;;;;;;;19.93;53.44;98306.97;5023065;28;20033;-67
2022/05/23 06:35:12;;;;;;;11.13;4.15;;;;;;;19.82;53.66;98294.81;5026418;28;20045;-64
2022/05/23 06:37:40;;;;;;;6.18;4.25;;;;;;;19.68;53.93;98287.47;5014752;28;20068;-65
2022/05/23 06:40:08;;;;;;;8.15;3.45;;;;;;;19.57;54.66;98287.81;5026093;28;20116;-64
2022/05/23 06:42:34;;;;;;;9.90;3.47;;;;;;;19.56;55.07;98286.97;5024622;28;20585;-66
2022/05/23 06:45:04;;;;;;;11.88;4.13;;;;;;;19.53;55.01;98282.78;5006037;28;20064;-60
2022/05/23 06:47:29;;;;;;;8.60;3.67;;;;;;;19.54;55.21;98275.59;5005026;28;20065;-64
2022/05/23 06:49:55;;;;;;;11.45;3.53;;;;;;;19.61;54.54;98268.56;5006210;28;20061;-65
2022/05/23 06:52:21;;;;;;;7.82;3.58;;;;;;;19.70;53.93;98266.75;5006368;28;20124;-63
2022/05/23 06:54:46;;;;;;;14.20;3.70;;;;;;;19.77;53.83;98256.22;5005667;28;20188;-64
2022/05/23 06:57:12;;;;;;;12.07;6.65;;;;;;;19.85;53.57;98261.53;5005671;28;20569;-64
2022/05/23 06:59:38;;;;;;;11.93;4.32;;;;;;;19.95;53.54;98262.16;5005806;28;20087;-64
2022/05/23 07:02:06;;;;;;;6.43;3.53;;;;;;;20.16;53.61;98257.06;5007788;28;20045;-66
2022/05/23 07:12:59;;;;;;;6.65;2.83;;;;;;;20.42;51.78;98239.88;5004638;28;20052;-65
2022/05/23 07:15:24;;;;;;;4.70;2.50;;;;;;;20.45;51.76;98238.69;5005457;28;20135;-66
2022/05/23 07:17:50;;;;;;;6.00;2.50;;;;;;;20.42;51.20;98244.38;5005040;28;20042;-63
2022/05/23 07:20:15;;;;;;;6.05;3.08;;;;;;;20.44;51.43;98237.03;5005647;28;20044;-64
2022/05/23 07:22:41;;;;;;;6.05;2.85;;;;;;;20.51;51.05;98240.66;5005579;28;20041;-64
2022/05/23 07:25:07;;;;;;;4.05;2.15;;;;;;;20.61;51.77;98237.78;5005142;28;20466;-63
2022/05/23 07:27:32;;;;;;;4.53;2.20;;;;;;;20.67;51.63;98232.53;5004504;28;20046;-63
2022/05/23 07:29:59;;;;;;;4.95;2.92;;;;;;;20.79;51.79;98227.59;5005942;28;20037;-64
2022/05/23 07:32:24;;;;;;;4.95;2.92;;;;;;;20.97;51.22;98230.81;5004869;28;20609;-64
2022/05/23 07:34:50;;;;;;;4.90;2.70;;;;;;;21.16;51.29;98228.63;5005606;28;20603;-66
2022/05/23 07:37:15;;;;;;;4.90;2.38;;;;;;;21.31;50.82;98226.00;5004427;28;20415;-66
2022/05/23 07:39:41;;;;;;;4.10;2.47;;;;;;;21.49;49.33;98234.56;5005398;28;20049;-65
2022/05/23 07:42:08;;;;;;;5.60;2.92;;;;;;;21.60;48.88;98233.25;5005151;28;20524;-65
2022/05/23 07:44:35;;;;;;;5.60;2.35;;;;;;;21.69;49.30;98239.38;5005123;28;20042;-64
2022/05/23 07:47:00;;;;;;;6.85;2.33;;;;;;;21.77;48.03;98244.66;5004003;28;20042;-64
2022/05/23 07:49:26;;;;;;;8.68;2.60;;;;;;;21.81;47.32;98245.97;5004748;28;20424;-66
2022/05/23 07:51:53;;;;;;;5.10;2.83;;;;;;;21.87;47.47;98245.19;4997703;28;20045;-65
2022/05/23 08:02:32;;;;;;;5.25;2.25;;;;;;;23.12;44.05;98210.06;5009202;28;20145;-64
2022/05/23 08:04:58;;;;;;;5.90;2.80;;;;;;;23.28;43.35;98214.31;5007493;28;20120;-65
2022/05/23 08:07:28;;;;;;;3.95;2.13;;;;;;;23.20;43.83;98210.94;5006984;28;20611;-63
2022/05/23 08:09:54;;;;;;;7.28;2.42;;;;;;;23.49;43.16;98204.53;5009287;28;20053;-66
2022/05/23 08:12:20;;;;;;;4.25;2.22;;;;;;;23.85;42.58;98217.81;5008960;28;20034;-64
2022/05/23 08:14:45;;;;;;;5.18;2.17;;;;;;;24.18;42.12;98217.94;5009118;28;20125;-63
2022/05/23 08:17:10;;;;;;;8.13;2.45;;;;;;;24.39;41.72;98208.06;5007264;28;20040;-63
2022/05/23 08:19:36;;;;;;;13.73;3.28;;;;;;;24.42;42.08;98197.72;5008257;28;20042;-65
2022/05/23 08:22:02;;;;;;;6.80;3.55;;;;;;;24.69;41.01;98197.00;5009939;28;20058;-65
2022/05/23 08:24:27;;;;;;;12.18;3.10;;;;;;;24.86;39.76;98195.56;5008930;28;20042;-68
2022/05/23 08:26:53;;;;;;;4.32;2.45;;;;;;;24.96;39.03;98187.88;5008482;28;20046;-66
2022/05/23 08:29:18;;;;;;;3.80;2.05;;;;;;;24.75;39.82;98193.47;5008810;28;20045;-65
2022/05/23 08:31:44;;;;;;;5.03;2.30;;;;;;;24.61;40.48;98193.44;5008703;28;20524;-67
2022/05/23 08:34:09;;;;;;;8.95;2.67;;;;;;;24.51;40.53;98201.06;5009091;28;20037;-65
2022/05/23 08:36:35;;;;;;;5.70;2.80;;;;;;;24.36;40.97;98197.69;5007826;28;20382;-66
2022/05/23 08:39:02;;;;;;;7.82;2.33;;;;;;;24.24;41.15;98191.25;5008804;28;20037;-63
2022/05/23 08:41:34;;;;;;;8.95;2.88;;;;;;;24.14;41.72;98181.66;5008286;28;20049;-65
2022/05/23 08:44:13;;;;;;;5.53;2.40;;;;;;;24.09;41.68;98169.84;5008630;28;20026;-67
2022/05/23 08:46:56;;;;;;;8.00;2.88;;;;;;;24.15;41.93;98177.13;5005896;28;20045;-66
2022/05/23 08:49:24;;;;;;;10.40;3.03;;;;;;;24.15;41.99;98174.44;5007815;28;20061;-66
2022/05/23 08:52:04;;;;;;;7.50;3.03;;;;;;;24.13;41.73;98180.03;5007831;28;20038;-65
2022/05/23 08:55:01;;;;;;;9.00;2.58;;;;;;;24.12;42.17;98185.59;5008093;28;20034;-66
2022/05/23 08:57:33;;;;;;;6.03;2.63;;;;;;;24.21;42.30;98176.31;5007212;28;20038;-66
2022/05/23 09:00:04;;;;;;;5.97;2.35;;;;;;;24.29;41.37;98169.91;5008527;28;20034;-65
2022/05/23 09:02:48;;;;;;;8.00;2.95;;;;;;;24.46;41.51;98159.63;5008177;28;20105;-66
2022/05/23 09:05:35;;;;;;;5.40;3.53;;;;;;;25.20;39.83;98166.72;5007780;28;20042;-67
2022/05/23 09:08:08;;;;;;;7.00;2.58;;;;;;;25.95;39.07;98152.88;5007294;28;20044;-66
2022/05/23 09:10:55;;;;;;;18.67;3.95;;;;;;;26.94;37.61;98135.19;5008058;28;20072;-66
2022/05/23 09:13:22;;;;;;;15.60;3.05;;;;;;;27.86;35.34;98127.19;5007389;28;20156;-65
2022/05/23 09:15:52;;;;;;;8.85;2.75;;;;;;;28.63;34.80;98121.16;5005809;28;20157;-65
2022/05/23 09:18:23;;;;;;;6.80;3.22;;;;;;;29.53;34.07;98118.09;5007527;28;20599;-67
2022/05/23 09:20:57;;;;;;;5.55;2.28;;;;;;;30.32;32.25;98117.56;5007736;28;20565;-65
2022/05/23 09:23:29;;;;;;;5.00;2.90;;;;;;;30.88;30.19;98119.59;5007795;28;20034;-66
2022/05/23 09:25:55;;;;;;;5.45;2.63;;;;;;;31.22;29.68;98123.09;5006894;28;20505;-66
2022/05/23 09:28:21;;;;;;;6.60;2.75;;;;;;;31.38;29.48;98111.34;5007673;28;20053;-64
2022/05/23 09:30:56;;;;;;;13.15;3.70;;;;;;;31.21;29.92;98108.66;5008123;28;20126;-65
2022/05/23 09:33:22;;;;;;;8.45;2.97;;;;;;;31.47;30.44;98102.78;5007316;28;20053;-67
2022/05/23 09:35:53;;;;;;;10.13;3.42;;;;;;;31.93;29.03;98097.91;5007151;28;20609;-65
2022/05/23 09:38:18;;;;;;;13.23;3.58;;;;;;;32.11;28.56;98085.84;5007465;28;20390;-66
2022/05/23 09:40:45;;;;;;;10.82;3.00;;;;;;;31.92;28.96;98079.88;5006007;28;20049;-65
2022/05/23 09:49:20;;;;;;;6.78;3.00;;;;;;;31.76;29.52;98055.19;4998478;28;20168;-66
2022/05/23 09:51:56;;;;;;;6.40;2.63;;;;;;;31.80;29.49;98050.88;5007272;28;20034;-67
2022/05/23 09:54:44;;;;;;;8.93;4.63;;;;;;;31.62;29.58;98053.94;5007854;28;20076;-67
2022/05/23 09:57:24;;;;;;;5.40;3.22;;;;;;;31.38;29.79;98056.91;5006910;28;20026;-67
2022/05/23 10:00:10;;;;;;;7.32;3.30;;;;;;;31.61;29.56;98061.28;5007447;28;20049;-65
2022/05/23 10:02:47;;;;;;;4.82;2.70;;;;;;;31.69;30.00;98049.09;5007590;28;20563;-66
2022/05/23 10:05:33;;;;;;;14.02;3.42;;;;;;;31.28;30.48;98048.56;5007017;28;20158;-66
2022/05/23 10:08:04;;;;;;;18.67;3.47;;;;;;;30.41;31.89;98052.69;5005767;28;20049;-67
2022/05/23 10:10:33;;;;;;;8.48;2.80;;;;;;;30.16;32.81;98056.59;5007046;28;20095;-66
2022/05/23 10:13:19;;;;;;;5.05;2.60;;;;;;;30.11;32.29;98061.13;5007744;28;20044;-65
2022/05/23 10:15:52;;;;;;;6.30;2.70;;;;;;;29.94;32.81;98044.78;5007635;28;20050;-66
2022/05/23 10:18:26;;;;;;;4.70;2.33;;;;;;;29.72;33.00;98034.59;5008178;28;20061;-66
2022/05/23 10:20:52;;;;;;;5.82;2.50;;;;;;;29.64;33.41;98034.13;5010271;28;20030;-67
2022/05/23 10:23:23;;;;;;;4.05;2.35;;;;;;;29.46;34.18;98025.09;5008137;28;20557;-66
2022/05/23 10:26:16;;;;;;;6.32;2.90;;;;;;;29.34;34.44;98024.31;5005428;28;20065;-66
2022/05/23 10:28:53;;;;;;;6.07;2.65;;;;;;;28.94;35.00;98024.22;4987292;28;20101;-67
2022/05/23 10:32:10;;;;;;;7.20;3.03;;;;;;;28.79;35.60;98017.38;4988509;28;20035;-66
2022/05/23 10:34:39;;;;;;;3.60;2.50;;;;;;;28.31;35.95;98017.56;4985859;28;20049;-66
2022/05/23 10:37:08;;;;;;;7.47;3.50;;;;;;;27.97;36.88;98015.38;4986626;28;20041;-66
2022/05/23 10:42:23;;;;;;;4.55;3.05;;;;;;;27.80;37.96;97992.66;4986485;28;20381;-66
2022/05/23 10:45:16;;;;;;;6.35;2.80;;;;;;;27.65;37.72;97984.97;4986648;28;20660;-66
2022/05/23 10:47:53;;;;;;;6.07;2.60;;;;;;;27.36;38.68;97982.00;4985812;28;20741;-66
2022/05/23 10:50:31;;;;;;;6.90;3.10;;;;;;;27.56;37.89;97981.75;4986117;28;20042;-67
2022/05/23 10:53:14;;;;;;;4.63;2.47;;;;;;;27.81;37.86;97983.47;4986437;28;20540;-67
2022/05/23 10:56:18;;;;;;;9.02;2.75;;;;;;;27.54;38.51;97983.03;4986573;28;20599;-66
2022/05/23 10:59:28;;;;;;;4.43;2.95;;;;;;;27.40;39.14;97980.50;4985443;28;20041;-64
2022/05/23 11:02:25;;;;;;;4.95;3.80;;;;;;;27.34;39.40;97967.88;4985024;28;20046;-66
2022/05/23 11:04:50;;;;;;;9.90;3.63;;;;;;;27.26;38.79;97965.50;4986524;28;20034;-65
2022/05/23 11:07:45;;;;;;;9.67;3.77;;;;;;;27.15;39.26;97958.94;4986171;28;20513;-66
2022/05/23 11:10:36;;;;;;;4.47;2.45;;;;;;;27.26;39.40;97954.66;4986153;28;20081;-63
2022/05/23 11:13:22;;;;;;;7.38;3.35;;;;;;;27.01;39.92;97970.97;4987231;28;20037;-65
2022/05/23 11:15:58;;;;;;;6.65;3.25;;;;;;;26.75;40.50;97972.94;4985739;28;20782;-66
2022/05/23 11:18:42;;;;;;;9.52;3.17;;;;;;;26.65;40.98;97971.78;4985776;28;20045;-64
2022/05/23 11:21:12;;;;;;;6.43;2.90;;;;;;;26.66;40.99;97968.88;4985863;28;20042;-65
2022/05/23 11:23:45;;;;;;;8.00;3.75;;;;;;;26.89;40.70;97965.47;4986209;28;20046;-67
2022/05/23 11:26:25;;;;;;;8.82;3.38;;;;;;;26.97;40.67;97964.34;4985145;28;20063;-67
2022/05/23 11:34:26;;;;;;;11.65;4.32;;;;;;;26.92;40.47;97969.63;4986388;28;20053;-66
2022/05/23 11:37:01;;;;;;;7.25;3.38;;;;;;;26.90;40.77;97963.59;5003391;28;20044;-67
2022/05/23 11:39:42;;;;;;;;;;;;;;;27.11;40.58;97951.50;5006130;28;20226;-67
2022/05/23 11:42:12;;;;;;;6.68;3.38;;;;;;;27.24;40.25;97964.88;5005338;28;19924;-64
2022/05/23 11:44:44;;;;;;;5.32;3.33;;;;;;;27.14;40.50;97949.16;5005271;28;21004;-66
2022/05/23 11:47:21;;;;;;;5.22;3.45;;;;;;;26.89;41.43;97956.56;5004656;28;20042;-67
2022/05/23 11:50:26;;;;;;;7.60;2.85;;;;;;;26.71;42.21;97962.78;5005444;28;20088;-65
2022/05/23 11:53:23;;;;;;;9.40;3.35;;;;;;;26.45;42.49;97958.44;5009355;28;20049;-66
2022/05/23 11:55:55;;;;;;;12.75;3.97;;;;;;;26.40;43.33;97944.75;5024637;28;20041;-66
2022/05/23 11:58:39;;;;;;;7.53;3.72;;;;;;;26.45;43.41;97955.72;5024630;28;20107;-68
2022/05/23 12:01:10;;;;;;;14.10;4.50;;;;;;;26.15;44.24;97963.69;5024689;28;20041;-67
2022/05/23 12:03:51;;;;;;;9.57;3.72;;;;;;;25.71;44.75;97960.84;5025015;28;20631;-64
2022/05/23 12:06:23;;;;;;;12.80;4.68;;;;;;;25.32;45.55;97960.03;5024356;28;20038;-66
2022/05/23 12:08:57;;;;;;;8.52;4.22;;;;;;;25.25;45.68;97956.53;5024393;28;20128;-66
2022/05/23 12:11:24;;;;;;;7.88;4.18;;;;;;;25.05;46.36;97949.31;5024598;28;20045;-69
2022/05/23 12:13:51;;;;;;;8.95;4.22;;;;;;;24.92;47.09;97954.78;5024628;28;20044;-68
2022/05/23 12:16:37;;;;;;;11.32;4.43;;;;;;;24.84;47.52;97947.75;5024042;28;20047;-67
2022/05/23 12:19:08;;;;;;;11.35;3.85;;;;;;;24.55;49.09;97942.84;5024485;28;20044;-66
2022/05/23 12:21:36;;;;;;;7.85;3.92;;;;;;;24.33;50.83;97942.25;5022747;28;20042;-64
2022/05/23 12:24:23;;;;;;;6.15;3.85;;;;;;;24.11;51.73;97950.53;5023758;28;20033;-64
2022/05/23 12:26:52;;;;;;;7.82;4.03;;;;;;;23.91;52.43;97960.47;5004242;28;20041;-65
2022/05/23 12:29:23;;;;;;;11.85;4.55;;;;;;;23.74;54.65;97950.09;5005137;28;20041;-66
2022/05/23 12:32:11;;;;;;;8.05;5.03;;;;;;;23.57;55.19;97944.22;5004893;28;20034;-64
2022/05/23 12:34:46;;;;;;;10.98;4.78;;;;;;;23.39;56.18;97953.94;5005064;28;20042;-65
2022/05/23 12:37:19;;;;;;;7.10;3.95;;;;;;;23.26;57.16;97955.56;5003805;28;20041;-65
2022/05/23 12:39:44;;;;;;;7.88;5.03;;;;;;;23.13;57.45;97950.09;5003523;28;20096;-67
2022/05/23 12:42:31;;;;;;;12.57;4.10;;;;;;;23.05;59.37;97964.56;5008236;28;20046;-65